首页
METAR-TAF:

METAR-TAF

机场 :

威廉斯波特, 宾夕法尼亚州, 美国

纬度: 41-14-30N, 经度: 076-55-15W, 海拔: 161米

当前天气观测

该预报发布于31分钟前的15:54 UTC
风速8节,风向西
温度 3°C
湿度 70%
气压 1026 hPa
能見度: 16.1公里
天空无云

METAR: KIPT 171554Z 26008KT 10SM CLR 03/M02 A3029 RMK AO2 SLP265 T00281022

时间: 11:25 (16:25 UTC)

预报

该预报发布于1小时和43分钟前的14:42 UTC
预报有效从17日的 15点(UTC)到 18日的 12点(UTC)
风速5节,风向西
能見度: 8.0公里
散云层高于600英尺
轻雾
从 17日的 1520点(UTC)
风速5节,风向西转西北
能見度: 10公里
天空无云
从 17日的 2100点(UTC)
风速6节,风向
能見度: 10公里
天空无云
从 18日的 0300点(UTC)
风速8节,风向东转东南,有时为15节阵风
能見度: 10公里
多云层高于10000英尺
从 18日的 1000点(UTC)
风速12节,风向东南,有时为25节阵风
能見度: 3.2公里
多云层高于600英尺
阴天层高于1200英尺
小雪, 轻雾

TAF: KIPT 171442Z 1715/1812 28005KT 5SM BR SCT006 FM171520 30005KT P6SM SKC FM172100 08006KT P6SM SKC FM180300 12008G15KT P6SM BKN100 FM181000 13012G25KT 2SM -SN BR BKN006 OVC012

超过4000个机场的气象观测和天气预报(METAR&TAF报告)。

可查询的气象台以黄色和红色小点在地图上表示。

将鼠标移到小点上方,可查看气象台名称。

然后点击查看天气观测和预报。

如需切换地图:点击带黑十字的绿色按钮放大地图;点击带横线的绿色按钮缩小地图;或者点击绿色箭头查看邻近地区的地图。


METAR-TAF: